Time;durP1;ratioP1;P1;durP2;ratioP2;P2;SDS_P1;SDS_P2;PMS_P1;PMS_P2;Temp;Humidity;BMP_temperature;BMP_pressure;BME280_temperature;BME280_humidity;BME280_pressure;Samples;Min_cycle;Max_cycle;Signal;HPM_P1;HPM_P2
2022/01/31 00:00:38;;;;;;;12.13;3.40;;;;;;;4.05;55.05;96384.56;5075114;28;20447;-38
2022/01/31 00:03:05;;;;;;;8.47;2.53;;;;;;;4.05;55.35;96405.59;5075082;28;20448;-36
2022/01/31 00:05:32;;;;;;;12.97;2.63;;;;;;;3.91;54.72;96386.38;5074779;28;20439;-39
2022/01/31 00:08:00;;;;;;;16.60;1.93;;;;;;;4.03;55.70;96394.47;5074588;28;20494;-38
2022/01/31 00:10:29;;;;;;;14.63;3.73;;;;;;;4.02;55.07;96405.97;5074624;28;20537;-36
2022/01/31 00:13:02;;;;;;;13.00;3.03;;;;;;;4.01;55.33;96405.19;5074529;28;20460;-35
2022/01/31 00:15:30;;;;;;;16.23;2.43;;;;;;;3.97;55.44;96401.34;5074610;28;20435;-34
2022/01/31 00:17:59;;;;;;;10.27;1.90;;;;;;;3.94;55.69;96408.84;5074763;28;20452;-34
2022/01/31 00:20:26;;;;;;;11.70;3.80;;;;;;;3.92;55.69;96408.22;5073579;28;20448;-35
2022/01/31 00:22:53;;;;;;;17.67;3.80;;;;;;;3.94;55.78;96404.38;5074293;28;20926;-34
2022/01/31 00:25:20;;;;;;;13.47;3.60;;;;;;;3.94;56.10;96403.59;5074299;28;20451;-36
2022/01/31 00:27:48;;;;;;;24.13;5.40;;;;;;;3.88;55.96;96399.94;5074242;28;20444;-37
2022/01/31 00:30:17;;;;;;;21.67;6.33;;;;;;;3.88;56.09;96410.44;5074127;28;20531;-35
2022/01/31 00:32:45;;;;;;;12.30;2.77;;;;;;;3.90;55.94;96426.81;5074156;28;20444;-34
2022/01/31 00:35:13;;;;;;;8.20;2.03;;;;;;;3.91;55.06;96396.91;5073884;28;20471;-35
2022/01/31 00:37:41;;;;;;;7.90;3.37;;;;;;;3.87;55.75;96403.56;5074926;28;20444;-36
2022/01/31 00:40:10;;;;;;;28.53;4.40;;;;;;;3.85;56.11;96400.34;5074373;28;20927;-35
2022/01/31 00:42:37;;;;;;;6.10;2.20;;;;;;;3.84;56.23;96403.97;5073960;28;20440;-34
2022/01/31 00:45:13;;;;;;;13.60;2.00;;;;;;;3.82;56.01;96400.75;5074252;28;20450;-35
2022/01/31 00:47:44;;;;;;;6.33;2.70;;;;;;;3.80;56.10;96393.06;5073902;28;20428;-34
2022/01/31 00:50:15;;;;;;;9.17;2.77;;;;;;;3.79;56.88;96375.72;5073941;28;20439;-38
2022/01/31 00:52:44;;;;;;;3.47;2.40;;;;;;;3.76;56.39;96370.03;5074009;28;20439;-34
2022/01/31 00:55:13;;;;;;;6.33;1.90;;;;;;;3.71;56.51;96372.47;5073751;28;20448;-34
2022/01/31 00:57:41;;;;;;;11.63;2.50;;;;;;;3.68;56.78;96381.56;5074038;28;20446;-35
2022/01/31 01:00:10;;;;;;;7.43;2.40;;;;;;;3.67;56.78;96377.31;5074537;28;20500;-35
2022/01/31 01:02:37;;;;;;;10.63;2.63;;;;;;;3.71;56.93;96388.25;5073990;28;20800;-37
2022/01/31 01:05:06;;;;;;;19.30;4.33;;;;;;;3.67;57.06;96378.13;5073645;28;20443;-34
2022/01/31 01:07:34;;;;;;;10.93;2.23;;;;;;;3.66;56.96;96376.53;5073608;28;20446;-34
2022/01/31 01:10:02;;;;;;;11.33;3.17;;;;;;;3.59;56.93;96375.72;5073804;28;20495;-37
2022/01/31 01:12:29;;;;;;;8.23;2.20;;;;;;;3.60;56.39;96372.06;5073903;28;20874;-34
2022/01/31 01:14:57;;;;;;;17.77;3.30;;;;;;;3.58;56.80;96376.72;5073390;28;20443;-34
2022/01/31 01:17:25;;;;;;;10.70;4.07;;;;;;;3.61;57.00;96363.19;5073420;28;20454;-38
2022/01/31 01:19:52;;;;;;;6.07;3.10;;;;;;;3.60;57.20;96372.06;5073450;28;20440;-35
2022/01/31 01:22:19;;;;;;;12.80;2.27;;;;;;;3.56;57.18;96370.84;5073479;28;20444;-34
2022/01/31 01:24:49;;;;;;;5.33;1.47;;;;;;;3.51;57.34;96361.97;5073496;28;20451;-34
2022/01/31 01:27:19;;;;;;;6.53;2.30;;;;;;;3.51;57.38;96360.16;5073672;28;20466;-35
2022/01/31 01:29:47;;;;;;;9.30;2.27;;;;;;;3.35;57.08;96347.44;5073567;28;20491;-36
2022/01/31 01:32:14;;;;;;;15.30;2.27;;;;;;;3.41;57.69;96363.19;5073085;28;20436;-38
2022/01/31 01:34:41;;;;;;;16.03;1.93;;;;;;;3.41;57.54;96367.63;5073078;28;20475;-38
2022/01/31 01:37:09;;;;;;;15.77;3.30;;;;;;;3.37;57.83;96355.91;5073557;28;20447;-38
2022/01/31 01:39:36;;;;;;;16.53;6.87;;;;;;;3.41;57.91;96367.63;5073324;28;20447;-38
2022/01/31 01:42:05;;;;;;;3.97;2.23;;;;;;;3.39;57.68;96369.66;5073587;28;20450;-37
2022/01/31 01:44:45;;;;;;;10.13;2.10;;;;;;;3.35;58.22;96365.81;5073576;28;20448;-37
2022/01/31 01:47:13;;;;;;;13.93;2.67;;;;;;;3.38;58.13;96368.84;5073318;28;20502;-38
2022/01/31 01:49:40;;;;;;;2.60;1.80;;;;;;;3.42;57.98;96363.97;5073375;28;20484;-37
2022/01/31 01:52:08;;;;;;;4.57;1.77;;;;;;;3.42;57.92;96358.72;5073120;28;20784;-39
2022/01/31 01:54:35;;;;;;;8.80;2.20;;;;;;;3.36;58.62;96373.47;5073086;28;20482;-37
2022/01/31 01:57:03;;;;;;;10.93;2.73;;;;;;;3.38;57.99;96362.78;5073443;28;20439;-37
2022/01/31 01:59:35;;;;;;;6.00;2.03;;;;;;;3.36;58.16;96364.81;5073041;28;20443;-36
2022/01/31 02:02:02;;;;;;;10.47;2.10;;;;;;;3.32;58.26;96368.84;5073122;28;20847;-37
2022/01/31 02:04:29;;;;;;;5.83;2.17;;;;;;;3.31;58.51;96368.00;5073372;28;20455;-38
2022/01/31 02:06:57;;;;;;;32.50;2.40;;;;;;;3.37;57.85;96364.59;5072977;28;20949;-37
2022/01/31 02:09:28;;;;;;;2.30;1.53;;;;;;;3.37;58.36;96367.22;5073182;28;20986;-37
2022/01/31 02:11:55;;;;;;;12.10;2.43;;;;;;;3.41;57.79;96370.25;5072951;28;20458;-39
2022/01/31 02:14:22;;;;;;;9.63;2.07;;;;;;;3.39;58.37;96372.28;5073260;28;20444;-38
2022/01/31 02:16:52;;;;;;;5.40;2.00;;;;;;;3.31;58.23;96359.34;5072821;28;20440;-38
2022/01/31 02:19:21;;;;;;;5.47;1.80;;;;;;;3.36;58.30;96364.81;5073146;28;20509;-38
2022/01/31 02:21:53;;;;;;;25.67;2.57;;;;;;;3.36;58.61;96380.56;5073186;28;20472;-38
2022/01/31 02:24:20;;;;;;;2.10;1.47;;;;;;;3.35;58.31;96378.94;5073253;28;20493;-38
2022/01/31 02:26:48;;;;;;;24.90;2.57;;;;;;;3.36;58.49;96370.06;5073224;28;20447;-39
2022/01/31 02:29:15;;;;;;;10.57;2.43;;;;;;;3.36;58.59;96367.44;5072600;28;20483;-35
2022/01/31 02:31:46;;;;;;;5.13;2.27;;;;;;;3.37;58.88;96379.53;5072769;28;20448;-36
2022/01/31 02:34:14;;;;;;;1.97;1.50;;;;;;;3.37;58.75;96367.22;5072706;28;20440;-35
2022/01/31 02:36:41;;;;;;;11.47;2.73;;;;;;;3.35;58.68;96373.69;5072615;28;20479;-35
2022/01/31 02:39:10;;;;;;;5.13;1.70;;;;;;;3.36;58.80;96383.97;5072702;28;20493;-34
2022/01/31 02:41:42;;;;;;;23.50;5.20;;;;;;;3.35;58.39;96384.16;5072743;28;20451;-34
2022/01/31 02:44:14;;;;;;;16.90;2.70;;;;;;;3.27;58.99;96378.13;5075494;28;20448;-35
2022/01/31 02:46:49;;;;;;;12.43;2.50;;;;;;;3.21;58.78;96367.63;5076333;28;20424;-35
2022/01/31 02:49:20;;;;;;;9.97;2.63;;;;;;;3.26;59.06;96381.75;5076482;28;20477;-34
2022/01/31 02:51:52;;;;;;;8.23;2.13;;;;;;;3.23;58.87;96381.34;5076136;28;20888;-35
2022/01/31 02:54:21;;;;;;;20.10;2.57;;;;;;;3.27;58.71;96393.88;5076178;28;20515;-34
2022/01/31 02:56:48;;;;;;;7.80;2.67;;;;;;;3.30;59.07;96382.16;5076034;28;20444;-37
2022/01/31 02:59:15;;;;;;;7.40;2.20;;;;;;;3.30;58.59;96381.34;5076339;28;20459;-35
2022/01/31 03:01:42;;;;;;;17.00;2.73;;;;;;;3.31;58.64;96378.50;5075933;28;20455;-37
2022/01/31 03:04:10;;;;;;;10.00;2.97;;;;;;;3.32;58.34;96374.88;5075940;28;20450;-36
2022/01/31 03:06:38;;;;;;;13.47;1.90;;;;;;;3.30;58.84;96381.34;5076126;28;20943;-36
2022/01/31 03:09:06;;;;;;;14.73;4.47;;;;;;;3.17;58.24;96361.94;5075793;28;20489;-35
2022/01/31 03:11:34;;;;;;;11.63;2.43;;;;;;;3.30;58.43;96383.97;5075776;28;20456;-37
2022/01/31 03:14:02;;;;;;;11.77;2.23;;;;;;;3.16;58.34;96365.59;5075908;28;20848;-37
2022/01/31 03:16:29;;;;;;;6.03;1.87;;;;;;;3.27;58.07;96375.50;5075772;28;20465;-34
2022/01/31 03:18:56;;;;;;;5.07;2.23;;;;;;;3.27;58.44;96370.25;5075931;28;20444;-35
2022/01/31 03:21:23;;;;;;;6.13;2.30;;;;;;;3.26;58.53;96371.25;5075940;28;20800;-35
2022/01/31 03:23:51;;;;;;;9.60;2.70;;;;;;;3.27;58.18;96375.50;5075563;28;20444;-37
2022/01/31 03:26:18;;;;;;;8.27;2.27;;;;;;;3.17;57.74;96369.81;5075495;28;20947;-35
2022/01/31 03:28:49;;;;;;;7.70;2.23;;;;;;;3.21;58.29;96368.41;5075420;28;20505;-38
2022/01/31 03:31:18;;;;;;;11.33;2.00;;;;;;;3.23;58.13;96355.91;5075437;28;20424;-37
2022/01/31 03:33:46;;;;;;;9.47;1.83;;;;;;;3.17;58.16;96361.94;5075370;28;20973;-37
2022/01/31 03:36:13;;;;;;;5.43;2.37;;;;;;;3.23;58.28;96360.34;5075164;28;20475;-38
2022/01/31 03:38:41;;;;;;;10.60;2.80;;;;;;;3.22;57.97;96350.84;5075311;28;20454;-35
2022/01/31 03:41:08;;;;;;;11.90;3.60;;;;;;;3.18;58.31;96357.50;5075254;28;20444;-38
2022/01/31 03:43:36;;;;;;;21.97;7.90;;;;;;;3.18;58.11;96354.88;5075093;28;20459;-36
2022/01/31 03:46:05;;;;;;;11.63;4.63;;;;;;;3.19;57.94;96365.19;5075533;28;20806;-36
2022/01/31 03:48:32;;;;;;;29.17;13.40;;;;;;;3.17;58.07;96356.72;5075082;28;20443;-36
2022/01/31 03:51:02;;;;;;;14.10;5.80;;;;;;;3.15;58.07;96353.47;5074966;28;20491;-37
2022/01/31 03:53:29;;;;;;;34.57;11.83;;;;;;;3.15;57.92;96368.41;5074946;28;20451;-35
2022/01/31 03:55:57;;;;;;;4.97;2.80;;;;;;;3.16;57.65;96355.09;5074959;28;20953;-36
2022/01/31 03:58:24;;;;;;;5.10;2.00;;;;;;;3.14;58.24;96361.53;5075215;28;20444;-37
2022/01/31 04:00:52;;;;;;;4.67;2.27;;;;;;;3.13;58.04;96345.00;5074849;28;20447;-34
2022/01/31 04:03:21;;;;;;;7.17;2.40;;;;;;;3.14;58.01;96362.38;5075059;28;20834;-35
2022/01/31 04:05:49;;;;;;;5.53;3.33;;;;;;;3.15;58.38;96358.72;5074955;28;20440;-37
2022/01/31 04:08:16;;;;;;;9.33;3.83;;;;;;;3.12;58.63;96368.78;5075017;28;20444;-34
2022/01/31 04:10:43;;;;;;;9.70;3.07;;;;;;;3.12;58.21;96361.75;5074884;28;20495;-36
2022/01/31 04:13:10;;;;;;;6.10;2.80;;;;;;;3.12;58.37;96356.50;5075009;28;20463;-36
2022/01/31 04:15:39;;;;;;;13.13;4.27;;;;;;;3.15;58.20;96363.16;5074847;28;20444;-35
2022/01/31 04:18:06;;;;;;;7.90;3.30;;;;;;;3.13;58.34;96384.34;5074777;28;20440;-38
2022/01/31 04:20:36;;;;;;;7.90;3.20;;;;;;;3.10;58.28;96378.69;5074506;28;20444;-35
2022/01/31 04:23:08;;;;;;;10.70;2.90;;;;;;;3.10;58.43;96376.88;5074333;28;20479;-36
2022/01/31 04:25:44;;;;;;;6.67;2.20;;;;;;;3.08;58.28;96390.19;5074766;28;20428;-36
2022/01/31 04:28:20;;;;;;;7.50;2.93;;;;;;;3.02;58.49;96390.19;5074362;28;20432;-34
2022/01/31 04:30:53;;;;;;;5.13;2.17;;;;;;;3.04;58.49;96394.22;5074529;28;20498;-35
2022/01/31 04:33:21;;;;;;;11.73;2.53;;;;;;;3.05;58.82;96395.84;5074236;28;20440;-35
2022/01/31 04:35:50;;;;;;;15.03;2.27;;;;;;;3.04;58.60;96398.66;5073880;28;20479;-34
2022/01/31 04:38:18;;;;;;;9.73;2.67;;;;;;;2.95;58.36;96373.63;5074095;28;20444;-37
2022/01/31 04:40:45;;;;;;;7.47;2.03;;;;;;;2.84;58.85;96386.31;5074931;28;20440;-34
2022/01/31 04:43:13;;;;;;;5.17;2.63;;;;;;;2.96;58.98;96386.53;5074079;28;20447;-35
2022/01/31 04:45:46;;;;;;;12.87;2.90;;;;;;;3.01;58.78;96388.53;5068986;28;20447;-36
2022/01/31 04:48:14;;;;;;;6.60;2.40;;;;;;;2.92;58.94;96390.53;5054000;28;20499;-37
2022/01/31 04:50:41;;;;;;;5.43;2.63;;;;;;;2.99;58.81;96395.81;5054048;28;20488;-36
2022/01/31 04:53:10;;;;;;;21.73;5.27;;;;;;;2.97;58.63;96408.31;5054243;28;20445;-37
2022/01/31 04:55:38;;;;;;;20.77;2.70;;;;;;;2.95;58.92;96389.38;5054147;28;20448;-35
2022/01/31 04:58:05;;;;;;;11.20;2.87;;;;;;;2.94;58.84;96398.22;5054071;28;20444;-37
2022/01/31 05:00:33;;;;;;;4.10;2.13;;;;;;;2.95;58.77;96397.22;5053713;28;20817;-35
2022/01/31 05:03:02;;;;;;;7.17;2.00;;;;;;;2.95;58.84;96399.84;5053454;28;20488;-36
2022/01/31 05:05:29;;;;;;;9.17;2.00;;;;;;;2.93;58.92;96401.88;5052973;28;20810;-37
2022/01/31 05:07:56;;;;;;;10.47;2.53;;;;;;;2.90;58.96;96397.78;5053301;28;20441;-35
2022/01/31 05:10:25;;;;;;;53.37;18.13;;;;;;;2.89;59.00;96395.41;5053635;28;20492;-36
2022/01/31 05:12:52;;;;;;;11.90;5.43;;;;;;;2.85;58.79;96390.53;5053829;28;20449;-38
2022/01/31 05:15:19;;;;;;;10.60;5.33;;;;;;;2.83;58.87;96382.03;5053500;28;20449;-37
2022/01/31 05:17:47;;;;;;;6.33;5.07;;;;;;;2.82;59.23;96396.19;5053665;28;20473;-36
2022/01/31 05:20:14;;;;;;;11.53;4.00;;;;;;;2.82;59.23;96387.50;5053501;28;20451;-37
2022/01/31 05:22:41;;;;;;;11.60;2.37;;;;;;;2.84;58.96;96393.38;5053622;28;20832;-38
2022/01/31 05:25:09;;;;;;;7.50;3.97;;;;;;;2.82;59.31;96398.81;5053623;28;20436;-36
2022/01/31 05:27:38;;;;;;;3.40;1.80;;;;;;;2.73;58.84;96392.13;5053621;28;20441;-36
2022/01/31 05:30:06;;;;;;;12.00;2.80;;;;;;;2.80;59.03;96398.19;5068915;28;20484;-37
2022/01/31 05:32:33;;;;;;;11.47;2.40;;;;;;;2.79;59.33;96407.03;5073360;28;20436;-37
2022/01/31 05:35:03;;;;;;;8.23;3.13;;;;;;;2.81;58.67;96405.03;5073295;28;20841;-37
2022/01/31 05:37:30;;;;;;;8.20;4.33;;;;;;;2.82;59.19;96406.66;5073315;28;20436;-36
2022/01/31 05:39:58;;;;;;;10.60;4.50;;;;;;;2.81;58.84;96396.38;5073340;28;20448;-37
2022/01/31 05:42:25;;;;;;;15.13;3.03;;;;;;;2.77;59.08;96398.56;5054514;28;20796;-37
2022/01/31 05:44:53;;;;;;;22.93;7.17;;;;;;;2.76;58.84;96415.31;5052943;28;20441;-37
2022/01/31 05:47:21;;;;;;;6.40;3.30;;;;;;;2.80;58.87;96400.81;5070058;28;20440;-37
2022/01/31 05:49:48;;;;;;;17.13;3.60;;;;;;;2.82;58.89;96406.66;5072611;28;20483;-37
2022/01/31 05:52:16;;;;;;;26.77;5.00;;;;;;;2.90;58.33;96402.25;5072502;28;20966;-35
2022/01/31 05:54:44;;;;;;;13.33;5.13;;;;;;;2.92;58.34;96400.22;5053349;28;20441;-38
2022/01/31 05:57:11;;;;;;;25.23;7.10;;;;;;;3.18;57.96;96399.47;5053349;28;20920;-38
2022/01/31 05:59:40;;;;;;;9.40;3.23;;;;;;;3.39;57.12;96401.13;5053404;28;20474;-37
2022/01/31 06:02:09;;;;;;;52.03;17.53;;;;;;;3.60;56.67;96411.44;5053254;28;20456;-35
2022/01/31 06:04:36;;;;;;;47.77;16.80;;;;;;;3.77;55.59;96403.19;5053186;28;20437;-37
2022/01/31 06:07:04;;;;;;;57.90;21.23;;;;;;;4.02;54.97;96401.56;5052733;28;20932;-38
2022/01/31 06:09:32;;;;;;;50.27;19.33;;;;;;;4.20;54.06;96408.78;5052988;28;20452;-37
2022/01/31 06:12:02;;;;;;;14.13;6.70;;;;;;;4.41;53.93;96402.47;5053751;28;20523;-38
2022/01/31 06:14:29;;;;;;;34.33;8.70;;;;;;;4.61;53.40;96405.03;5051604;28;20813;-39
2022/01/31 06:16:56;;;;;;;16.20;4.33;;;;;;;4.66;52.85;96407.03;5051602;28;20449;-39
2022/01/31 06:19:24;;;;;;;14.80;3.93;;;;;;;4.91;52.26;96410.59;5055265;28;20448;-37
2022/01/31 06:21:52;;;;;;;11.80;3.20;;;;;;;4.90;51.91;96393.19;5075669;28;20497;-38
2022/01/31 06:24:19;;;;;;;13.87;3.03;;;;;;;5.07;51.46;96403.22;5076648;28;20925;-37
2022/01/31 06:26:46;;;;;;;13.47;4.33;;;;;;;5.23;51.56;96415.88;5075899;28;20954;-37
2022/01/31 06:29:13;;;;;;;7.07;3.27;;;;;;;5.36;51.01;96408.94;5076451;28;20454;-38
2022/01/31 06:31:41;;;;;;;11.93;3.90;;;;;;;5.52;50.38;96403.94;5076339;28;20491;-38
2022/01/31 06:34:08;;;;;;;20.10;3.93;;;;;;;5.72;50.09;96406.44;5076269;28;20455;-37
2022/01/31 06:36:36;;;;;;;12.63;3.63;;;;;;;5.78;49.34;96414.50;5076249;28;20507;-37
2022/01/31 06:39:05;;;;;;;8.77;3.50;;;;;;;5.84;49.22;96409.19;5076301;28;20447;-38
2022/01/31 06:41:32;;;;;;;8.07;3.13;;;;;;;5.87;48.89;96402.66;5076471;28;20474;-38
2022/01/31 06:43:59;;;;;;;5.07;2.67;;;;;;;6.05;48.81;96400.13;5076234;28;20446;-38
2022/01/31 06:46:26;;;;;;;8.10;3.20;;;;;;;6.21;48.06;96403.22;5076108;28;20444;-37
2022/01/31 06:48:53;;;;;;;9.80;3.50;;;;;;;6.28;48.12;96393.41;5076119;28;20804;-39
2022/01/31 06:51:21;;;;;;;8.13;2.73;;;;;;;6.36;47.31;96395.75;5076324;28;20509;-38
2022/01/31 06:53:49;;;;;;;12.20;2.97;;;;;;;6.45;47.18;96404.19;5075088;28;20444;-38
2022/01/31 06:56:17;;;;;;;3.70;3.10;;;;;;;6.54;47.14;96419.50;5074675;28;20444;-38
2022/01/31 06:58:45;;;;;;;9.20;2.83;;;;;;;6.61;46.88;96400.16;5074870;28;20440;-38
2022/01/31 07:01:12;;;;;;;11.63;3.40;;;;;;;6.65;46.50;96388.16;5075017;28;20481;-39
2022/01/31 07:03:40;;;;;;;22.97;4.17;;;;;;;6.82;46.67;96373.31;5073636;28;20958;-39
2022/01/31 07:06:07;;;;;;;8.23;4.53;;;;;;;6.81;45.80;96384.88;5075009;28;20475;-35
2022/01/31 07:08:35;;;;;;;12.67;5.87;;;;;;;6.85;45.78;96378.16;5071239;28;20448;-36
2022/01/31 07:11:03;;;;;;;22.63;6.40;;;;;;;6.84;45.53;96368.63;5074572;28;20495;-35
2022/01/31 07:13:38;;;;;;;6.23;3.70;;;;;;;6.85;45.61;96372.88;5075293;28;20995;-35
2022/01/31 07:16:06;;;;;;;14.50;8.40;;;;;;;6.86;45.49;96337.56;5072542;28;20443;-36
2022/01/31 07:18:35;;;;;;;11.80;5.90;;;;;;;7.10;45.44;96369.31;5073613;28;20931;-36
2022/01/31 07:21:03;;;;;;;21.73;9.97;;;;;;;7.19;44.65;96367.97;5075472;28;20796;-35
2022/01/31 07:23:49;;;;;;;5.57;2.90;;;;;;;7.25;44.18;96364.41;5072903;28;20443;-36
2022/01/31 07:26:18;;;;;;;9.60;3.97;;;;;;;7.17;44.47;96362.09;5075003;28;20436;-37
2022/01/31 07:28:45;;;;;;;38.00;13.90;;;;;;;7.22;44.67;96371.97;5072665;28;20497;-35
2022/01/31 07:31:12;;;;;;;8.77;5.03;;;;;;;7.13;44.13;96364.38;5073342;28;20502;-34
2022/01/31 07:33:42;;;;;;;6.53;3.03;;;;;;;7.18;43.74;96377.72;5074855;28;20451;-37
2022/01/31 07:36:10;;;;;;;7.73;2.47;;;;;;;7.24;43.99;96370.72;5074593;28;20483;-37
2022/01/31 07:38:37;;;;;;;7.33;2.90;;;;;;;7.41;43.57;96381.44;5072447;28;20448;-37
2022/01/31 07:41:05;;;;;;;7.93;3.03;;;;;;;7.41;44.02;96380.66;5074732;28;20444;-35
2022/01/31 07:43:34;;;;;;;6.20;1.83;;;;;;;7.53;43.62;96352.44;5073681;28;20443;-38
2022/01/31 07:46:01;;;;;;;14.87;3.47;;;;;;;7.63;43.27;96371.16;5073800;28;20519;-35
2022/01/31 07:48:29;;;;;;;7.73;4.23;;;;;;;7.65;42.91;96371.72;5071327;28;20506;-37
2022/01/31 07:50:56;;;;;;;3.33;2.13;;;;;;;7.70;42.38;96369.22;5074458;28;20509;-34
2022/01/31 07:53:24;;;;;;;30.50;5.23;;;;;;;7.78;42.91;96370.72;5073131;28;20931;-36
2022/01/31 07:55:51;;;;;;;9.30;2.53;;;;;;;7.82;42.78;96360.50;5073226;28;20803;-34
2022/01/31 07:58:20;;;;;;;4.80;3.40;;;;;;;7.96;42.69;96383.03;5071712;28;20489;-35
2022/01/31 08:00:48;;;;;;;667.50;302.83;;;;;;;7.93;41.86;96364.97;5073546;28;20444;-34
2022/01/31 08:03:16;;;;;;;76.10;42.53;;;;;;;8.00;42.19;96368.28;5072975;28;20817;-35
2022/01/31 08:05:44;;;;;;;24.07;10.83;;;;;;;7.92;42.30;96360.75;5072102;28;20469;-38
2022/01/31 08:08:11;;;;;;;25.00;14.07;;;;;;;8.10;42.62;96363.25;5070562;28;20452;-36
2022/01/31 08:10:39;;;;;;;51.57;32.07;;;;;;;8.12;41.76;96355.09;5074134;28;20472;-35
2022/01/31 08:13:08;;;;;;;252.43;126.60;;;;;;;8.08;41.29;96365.31;5073382;28;20470;-34
2022/01/31 08:15:45;;;;;;;109.40;58.87;;;;;;;8.09;41.71;96343.13;5074213;28;20470;-35
2022/01/31 08:18:14;;;;;;;18.47;11.47;;;;;;;8.11;42.28;96343.72;5070747;28;20454;-39
2022/01/31 08:20:42;;;;;;;13.33;11.00;;;;;;;8.29;42.02;96355.19;5073462;28;20931;-38
2022/01/31 08:23:10;;;;;;;37.60;22.33;;;;;;;8.41;41.60;96340.16;5073651;28;20443;-37
2022/01/31 08:25:37;;;;;;;15.00;8.57;;;;;;;8.40;40.68;96352.53;5072225;28;20452;-39
2022/01/31 08:28:09;;;;;;;21.67;13.03;;;;;;;8.45;41.64;96354.50;5071273;28;20447;-38
2022/01/31 08:30:44;;;;;;;27.10;12.90;;;;;;;8.48;41.00;96355.88;5073704;28;20471;-38
2022/01/31 08:33:25;;;;;;;17.93;8.37;;;;;;;8.63;41.85;96352.75;5069822;28;20935;-35
2022/01/31 08:35:53;;;;;;;46.03;21.27;;;;;;;8.67;40.84;96357.34;5052072;28;20472;-38
2022/01/31 08:38:21;;;;;;;35.60;19.33;;;;;;;8.63;40.50;96356.19;5053467;28;20451;-39
2022/01/31 08:40:48;;;;;;;40.00;22.33;;;;;;;8.61;41.02;96343.19;5065784;28;20447;-37
2022/01/31 08:43:17;;;;;;;155.50;85.47;;;;;;;8.70;40.80;96346.28;5072076;28;20452;-38
2022/01/31 08:45:45;;;;;;;34.17;19.13;;;;;;;8.80;40.83;96351.78;5071937;28;20448;-39
2022/01/31 08:48:12;;;;;;;28.13;15.60;;;;;;;8.88;40.12;96344.47;5073387;28;20440;-40
2022/01/31 08:50:39;;;;;;;45.07;27.07;;;;;;;8.81;40.38;96326.88;5071160;28;20444;-36
2022/01/31 08:53:08;;;;;;;17.57;10.70;;;;;;;8.93;40.24;96334.00;5072241;28;20450;-39
2022/01/31 08:55:36;;;;;;;32.20;14.17;;;;;;;8.95;40.13;96351.25;5072971;28;20444;-36
2022/01/31 08:58:06;;;;;;;15.43;4.30;;;;;;;8.90;39.96;96351.13;5073613;28;20494;-39
2022/01/31 09:00:36;;;;;;;14.73;9.90;;;;;;;8.92;40.22;96354.34;5069605;28;20444;-39
2022/01/31 09:03:20;;;;;;;13.17;6.50;;;;;;;8.84;39.74;96361.88;5072757;28;20425;-39
2022/01/31 09:05:47;;;;;;;11.70;6.03;;;;;;;8.91;39.58;96334.22;5072843;28;20444;-39
2022/01/31 09:08:16;;;;;;;93.07;49.27;;;;;;;9.07;39.01;96345.91;5073216;28;20448;-39
2022/01/31 09:10:44;;;;;;;56.77;29.33;;;;;;;9.14;38.71;96351.03;5071177;28;20815;-38
2022/01/31 09:13:14;;;;;;;95.37;46.97;;;;;;;9.00;38.95;96334.66;5072568;28;20447;-37
2022/01/31 09:15:42;;;;;;;66.50;38.03;;;;;;;9.02;37.95;96343.16;5072891;28;20474;-39
2022/01/31 09:18:09;;;;;;;45.63;28.53;;;;;;;9.16;38.45;96322.47;5072145;28;20452;-39
2022/01/31 09:20:37;;;;;;;39.00;24.00;;;;;;;9.23;37.82;96320.50;5070088;28;20443;-38
2022/01/31 09:23:04;;;;;;;23.60;8.80;;;;;;;9.27;36.19;96313.69;5072807;28;20444;-39
2022/01/31 09:25:35;;;;;;;131.93;86.17;;;;;;;9.29;38.44;96311.59;5072697;28;20784;-37
2022/01/31 09:28:03;;;;;;;36.60;32.90;;;;;;;9.34;38.36;96309.03;5061147;28;20531;-39
2022/01/31 09:30:31;;;;;;;20.23;9.70;;;;;;;9.35;37.98;96305.31;5071196;28;20451;-39
2022/01/31 09:32:59;;;;;;;49.50;31.70;;;;;;;9.47;38.35;96305.25;5072701;28;20487;-39
2022/01/31 09:35:26;;;;;;;26.13;16.93;;;;;;;9.50;37.89;96293.38;5072821;28;20490;-38
2022/01/31 09:37:53;;;;;;;54.27;34.93;;;;;;;9.63;37.24;96285.09;5071993;28;20822;-35
2022/01/31 09:40:23;;;;;;;16.00;10.33;;;;;;;9.67;37.84;96286.22;5072215;28;20927;-37
2022/01/31 09:43:11;;;;;;;20.80;14.83;;;;;;;9.69;37.31;96289.44;5073192;28;20463;-36
2022/01/31 09:45:55;;;;;;;11.63;9.00;;;;;;;9.67;37.61;96280.91;5071933;28;20439;-37
2022/01/31 09:48:35;;;;;;;12.17;8.90;;;;;;;9.54;36.90;96305.91;5071140;28;20432;-37
2022/01/31 09:51:06;;;;;;;71.23;37.13;;;;;;;9.54;37.10;96275.94;5070980;28;20471;-38
2022/01/31 09:53:36;;;;;;;67.13;31.67;;;;;;;9.34;36.55;96285.19;5075234;28;20427;-35
2022/01/31 09:56:07;;;;;;;20.50;16.23;;;;;;;9.37;36.81;96266.16;5075238;28;20440;-37
2022/01/31 09:58:36;;;;;;;21.33;14.20;;;;;;;9.42;36.92;96273.38;5075731;28;20434;-40
2022/01/31 10:01:06;;;;;;;12.33;6.93;;;;;;;9.58;36.59;96261.97;5075770;28;20861;-36
2022/01/31 10:03:35;;;;;;;6.80;6.20;;;;;;;9.63;36.10;96261.22;5075810;28;20450;-35
2022/01/31 10:06:02;;;;;;;21.80;9.40;;;;;;;9.56;36.71;96260.59;5076061;28;20448;-36
2022/01/31 10:08:30;;;;;;;17.63;10.37;;;;;;;9.52;36.20;96243.59;5076998;28;20935;-36
2022/01/31 10:11:01;;;;;;;10.40;7.20;;;;;;;9.52;37.24;96256.84;5076733;28;20439;-36
2022/01/31 10:16:27;;;;;;;13.20;4.33;;;;;;;9.66;37.06;96231.59;5076699;28;20419;-36
2022/01/31 10:19:06;;;;;;;4.90;3.00;;;;;;;9.64;36.67;96228.41;5076415;28;20466;-38
2022/01/31 10:21:54;;;;;;;14.87;8.97;;;;;;;9.57;35.77;96211.84;5075461;28;20455;-38
2022/01/31 10:24:22;;;;;;;17.43;7.00;;;;;;;9.64;36.64;96231.06;5073213;28;20821;-36
2022/01/31 10:26:49;;;;;;;16.63;9.40;;;;;;;9.42;35.94;96209.78;5074647;28;20501;-38
2022/01/31 10:29:18;;;;;;;6.77;4.87;;;;;;;9.53;36.07;96210.72;5076109;28;20920;-37
2022/01/31 10:32:05;;;;;;;39.93;17.30;;;;;;;9.64;36.98;96201.91;5076153;28;20487;-37
2022/01/31 10:34:35;;;;;;;20.67;6.47;;;;;;;9.66;36.08;96183.91;5075584;28;20443;-37
2022/01/31 10:37:05;;;;;;;17.03;10.47;;;;;;;9.58;36.23;96184.31;5074660;28;20928;-37
2022/01/31 10:45:31;;;;;;;5.30;2.90;;;;;;;9.64;34.95;96154.97;5071401;28;20493;-37
2022/01/31 10:54:01;;;;;;;11.20;3.33;;;;;;;9.70;32.96;96137.31;5075502;28;20476;-36
2022/01/31 10:56:38;;;;;;;78.37;36.00;;;;;;;9.77;33.96;96140.56;5073929;28;20435;-38
2022/01/31 10:59:07;;;;;;;25.77;14.07;;;;;;;9.87;34.74;96131.13;5055979;28;20425;-34
2022/01/31 11:01:37;;;;;;;8.93;4.20;;;;;;;9.89;34.74;96139.63;5055360;28;20456;-34
2022/01/31 11:04:07;;;;;;;11.87;3.13;;;;;;;10.02;34.03;96120.69;5067945;28;20444;-35
2022/01/31 11:06:35;;;;;;;5.97;3.23;;;;;;;9.88;33.02;96111.53;5072657;28;20555;-35
2022/01/31 11:09:07;;;;;;;12.10;4.17;;;;;;;9.80;32.57;96105.59;5075225;28;20550;-37
2022/01/31 11:11:36;;;;;;;6.63;4.10;;;;;;;9.81;33.72;96117.81;5073480;28;20994;-35
2022/01/31 11:14:04;;;;;;;38.87;20.00;;;;;;;9.78;33.11;96112.19;5075071;28;20815;-34
2022/01/31 11:16:32;;;;;;;37.57;28.63;;;;;;;9.67;33.51;96095.38;5073965;28;20444;-36
2022/01/31 11:19:02;;;;;;;10.73;3.93;;;;;;;9.69;31.63;96114.47;5075574;28;20480;-35
2022/01/31 11:21:35;;;;;;;14.07;5.90;;;;;;;9.68;32.17;96112.91;5075335;28;20436;-35
2022/01/31 11:24:04;;;;;;;11.67;6.17;;;;;;;9.64;33.34;96101.19;5074633;28;20443;-36
2022/01/31 11:26:39;;;;;;;191.20;83.60;;;;;;;9.55;34.47;96070.84;5072416;28;20447;-34
2022/01/31 11:29:08;;;;;;;172.97;82.57;;;;;;;9.84;34.54;96101.41;5075088;28;20440;-35
2022/01/31 11:31:38;;;;;;;123.47;60.20;;;;;;;9.82;35.03;96071.69;5074799;28;20483;-36
2022/01/31 11:34:06;;;;;;;142.40;64.00;;;;;;;10.01;34.21;96072.16;5074972;28;20451;-36
2022/01/31 11:36:36;;;;;;;75.40;40.13;;;;;;;10.13;34.88;96079.16;5072785;28;20483;-35
2022/01/31 11:39:06;;;;;;;55.10;31.90;;;;;;;10.21;34.55;96068.88;5075212;28;20792;-35
2022/01/31 11:41:35;;;;;;;152.37;75.27;;;;;;;10.24;33.92;96065.75;5074772;28;20463;-35
2022/01/31 11:44:09;;;;;;;307.40;138.70;;;;;;;10.18;34.10;96058.78;5074209;28;20444;-35
2022/01/31 11:46:40;;;;;;;84.23;42.20;;;;;;;10.18;33.48;96050.84;5072148;28;20443;-35
2022/01/31 11:49:11;;;;;;;347.70;199.07;;;;;;;10.28;34.29;96046.66;5074204;28;20440;-34
2022/01/31 11:52:02;;;;;;;110.57;54.73;;;;;;;10.21;33.63;96037.06;5074438;28;20507;-34
2022/01/31 11:54:30;;;;;;;36.40;19.20;;;;;;;10.28;33.41;96036.06;5074996;28;20440;-34
2022/01/31 11:56:57;;;;;;;20.77;12.10;;;;;;;10.18;33.79;96034.13;5075170;28;20577;-34